KPUB/PUB METAR and TAF weather

Enter ICAO airport designator
Station Type Date Time Source
KPUB METAR 2021/07/27 20:53 UTC NOAA

KPUB 272053Z 16008KT 10SM CLR 34/11 A3013 RMK AO2 SLP128 T03390106 56016


Station Type Date Time Source
KPUB Decoded METAR 2021/07/27 20:53 UTC NOAA

PUEBLO MEMORIAL AIRPORT, CO, United States (KPUB) 38-17N 104-30W 1420M
Jul 27, 2021 - 04:53 PM EDT / 2021.07.27 2053 UTC
Wind: from the SSE (160 degrees) at 9 MPH (8 KT):0
Visibility: 10 mile(s):0
Sky conditions: clear
Temperature: 93.0 F (33.9 C)
Dew Point: 51.1 F (10.6 C)
Relative Humidity: 24%
Pressure (altimeter): 30.13 in. Hg (1020 hPa)
Pressure tendency: 0.05 inches (1.6 hPa) lower than three hours ago
ob: KPUB 272053Z 16008KT 10SM CLR 34/11 A3013 RMK AO2 SLP128 T03390106 56016
cycle: 21

Station Type Date Time Source
KPUB TAF 2021/07/27 18:30 UTC NOAA

TAF KPUB 271727Z 2718/2818 12009KT P6SM FEW100
FM280300 VRB04KT P6SM FEW200

Example: see airport list